createdAt,value
2017-01-16T18:29:47.837Z,-0.99
2017-01-16T18:30:48.590Z,-0.42
2017-01-16T18:31:47.745Z,-0.26
2017-01-16T18:32:47.709Z,-0.06
2017-01-16T18:33:47.683Z,-0.14
2017-01-16T18:34:47.636Z,-0.12
2017-01-16T18:35:47.212Z,-0.16
2017-01-16T18:36:47.184Z,-0.08
2017-01-16T18:37:47.547Z,-0.06
2017-01-16T18:38:47.528Z,0.05
2017-01-16T18:39:47.494Z,0.22
2017-01-16T18:40:47.068Z,0.68
2017-01-16T18:41:47.083Z,1.08
2017-01-16T18:42:47.013Z,0.86
2017-01-16T18:43:47.380Z,0.67
2017-01-16T18:44:46.554Z,0.37
2017-01-16T18:45:47.353Z,0.49
2017-01-16T18:46:46.503Z,0.38
2017-01-16T18:47:47.265Z,0.2
2017-01-16T18:48:46.855Z,0.1
2017-01-16T18:49:47.215Z,0.02
2017-01-16T18:50:47.183Z,0.04
2017-01-16T18:51:46.761Z,-0.19
2017-01-16T18:52:47.131Z,-0.06
2017-01-16T18:53:46.764Z,-0.17
2017-01-16T18:54:47.137Z,-0.27
2017-01-16T18:55:47.059Z,-0.23
2017-01-16T18:56:47.032Z,-0.31
2017-01-16T18:57:47.015Z,-0.38
2017-01-16T18:58:46.576Z,-0.45
2017-01-16T18:59:46.594Z,-0.5
2017-01-16T19:00:46.516Z,-0.5
2017-01-16T19:01:46.517Z,-0.6
2017-01-16T19:02:46.884Z,-0.73
2017-01-16T19:03:46.833Z,-0.76
2017-01-16T19:04:46.866Z,-0.86
2017-01-16T19:05:46.769Z,-0.9
2017-01-16T19:06:46.801Z,-0.96
2017-01-16T19:07:46.731Z,-0.93
2017-01-16T19:08:46.700Z,-1.1
2017-01-16T19:09:46.666Z,-1.03
2017-01-16T19:10:46.643Z,-1.15
2017-01-16T19:11:46.622Z,-1
2017-01-16T19:12:46.186Z,-1.07
2017-01-16T19:13:47.366Z,-1.07
2017-01-16T19:14:46.140Z,-1.08
2017-01-16T19:15:46.537Z,-1.11
2017-01-16T19:16:46.724Z,-1.14
2017-01-16T19:17:46.077Z,-1.15
2017-01-16T19:18:46.020Z,-1.17
2017-01-16T19:19:46.405Z,-1.13
2017-01-16T19:20:46.365Z,-1.17
2017-01-16T19:21:46.396Z,-1.08
2017-01-16T19:22:46.366Z,-1.14
2017-01-16T19:23:46.295Z,-1.13
2017-01-16T19:24:46.255Z,-1.11
2017-01-16T19:25:46.231Z,-1.29
2017-01-16T19:26:45.819Z,-1.26
2017-01-16T19:27:46.226Z,-1.32
2017-01-16T19:28:46.169Z,-1.35
2017-01-16T19:29:46.120Z,-1.36
2017-01-16T19:30:46.093Z,-1.36
2017-01-16T19:31:45.662Z,-1.35
2017-01-16T19:32:46.041Z,-1.36
2017-01-16T19:33:46.008Z,-1.43
2017-01-16T19:34:45.629Z,-1.43
2017-01-16T19:35:45.637Z,-1.31
2017-01-16T19:36:45.928Z,-1.36
2017-01-16T19:37:45.894Z,-1.35
2017-01-16T19:38:45.471Z,-1.35
2017-01-16T19:39:45.896Z,-1.38
2017-01-16T19:40:45.419Z,-1.43
2017-01-16T19:41:45.792Z,-1.39
2017-01-16T19:42:45.761Z,-1.31
2017-01-16T19:43:45.738Z,-1.43
2017-01-16T19:44:45.308Z,-1.32
2017-01-16T19:45:45.279Z,-1.47
2017-01-16T19:46:45.650Z,-1.41
2017-01-16T19:47:45.266Z,-1.35
2017-01-16T19:48:45.590Z,-1.46
2017-01-16T19:49:45.563Z,-1.35
2017-01-16T19:50:45.584Z,-1.31
2017-01-16T19:51:45.508Z,-1.41
2017-01-16T19:52:45.485Z,-1.25
2017-01-16T19:53:45.461Z,-1.33
2017-01-16T19:54:45.022Z,-1.46
2017-01-16T19:55:45.848Z,-1.36
2017-01-16T19:56:45.371Z,-1.44
2017-01-16T19:57:45.351Z,-1.36
2017-01-16T19:58:44.934Z,-1.39
2017-01-16T19:59:45.298Z,-1.38
2017-01-16T20:00:45.275Z,-1.29
2017-01-16T20:01:45.236Z,-1.32
2017-01-16T20:02:45.207Z,-1.29
2017-01-16T20:03:45.181Z,-1.32
2017-01-16T20:04:45.147Z,-1.29
2017-01-16T20:05:44.716Z,-1.31
2017-01-16T20:06:44.719Z,-1.31
2017-01-16T20:07:44.685Z,-1.28
2017-01-16T20:08:45.091Z,-1.25
2017-01-16T20:09:45.051Z,-1.29
2017-01-16T20:10:45.041Z,-1.33
2017-01-16T20:11:44.558Z,-1.31
2017-01-16T20:12:44.926Z,-1.29
2017-01-16T20:13:44.929Z,-1.26
2017-01-16T20:14:44.871Z,-1.35
2017-01-16T20:15:44.851Z,-1.31
2017-01-16T20:16:44.724Z,-1.25
2017-01-16T20:17:44.400Z,-1.29
2017-01-16T20:18:44.666Z,-1.23
2017-01-16T20:19:44.734Z,-1.29
2017-01-16T20:20:44.709Z,-1.33
2017-01-16T20:21:44.681Z,-1.18
2017-01-16T20:22:44.649Z,-1.15
2017-01-16T20:23:44.221Z,-1.15
2017-01-16T20:24:44.204Z,-1.31
2017-01-16T20:25:44.171Z,-1.33
2017-01-16T20:26:44.577Z,-1.23
2017-01-16T20:27:44.511Z,-1.32
2017-01-16T20:28:44.491Z,-1.36
2017-01-16T20:29:44.454Z,-1.28
2017-01-16T20:30:44.437Z,-1.38
2017-01-16T20:31:44.400Z,-1.35
2017-01-16T20:32:44.374Z,-1.38
2017-01-16T20:33:43.950Z,-1.31
2017-01-16T20:34:43.544Z,-1.31
2017-01-16T20:35:44.285Z,-1.28
2017-01-16T20:36:43.867Z,-1.26
2017-01-16T20:37:43.839Z,-1.31
2017-01-16T20:38:43.812Z,-1.25
2017-01-16T20:39:44.183Z,-1.26
2017-01-16T20:40:43.761Z,-1.29
2017-01-16T20:41:43.332Z,-1.26
2017-01-16T20:42:43.756Z,-1.29
2017-01-16T20:43:44.071Z,-1.28
2017-01-16T20:44:43.244Z,-1.29
2017-01-16T20:45:44.017Z,-1.33
2017-01-16T20:46:43.993Z,-1.18
2017-01-16T20:47:44.023Z,-1.32
2017-01-16T20:48:43.940Z,-1.28
2017-01-16T20:49:43.918Z,-1.26
2017-01-16T20:50:43.879Z,-1.29
2017-01-16T20:51:43.851Z,-1.28
2017-01-16T20:52:43.819Z,-1.25
2017-01-16T20:53:43.799Z,-1.29
2017-01-16T20:54:43.762Z,-1.28
2017-01-16T20:55:43.756Z,-1.23
2017-01-16T20:56:43.315Z,-1.23
2017-01-16T20:57:43.709Z,-1.17
2017-01-16T20:58:43.655Z,-1.14
2017-01-16T20:59:43.876Z,-1.13
2017-01-16T21:00:43.201Z,-1.17
2017-01-16T21:01:43.626Z,-1.15
2017-01-16T21:02:43.549Z,-1.28
2017-01-16T21:03:43.585Z,-1.15
2017-01-16T21:04:43.507Z,-1.14
2017-01-16T21:05:43.481Z,-1.21
2017-01-16T21:06:43.441Z,-1.1
2017-01-16T21:07:43.419Z,-1.17
2017-01-16T21:08:43.402Z,-1.1
2017-01-16T21:09:43.361Z,-1.13
2017-01-16T21:10:43.332Z,-1.13
2017-01-16T21:11:42.904Z,-1.13
2017-01-16T21:12:42.481Z,-1.2
2017-01-16T21:13:43.280Z,-1.11
2017-01-16T21:14:43.225Z,-1.14
2017-01-16T21:15:43.199Z,-1.14
2017-01-16T21:16:43.177Z,-1.23
2017-01-16T21:17:43.137Z,-1.23
2017-01-16T21:18:42.716Z,-1.25
2017-01-16T21:19:43.959Z,-1.29
2017-01-16T21:20:43.056Z,-1.17
2017-01-16T21:21:43.029Z,-1.21
2017-01-16T21:22:42.712Z,-1.15
2017-01-16T21:23:42.975Z,-1.1
2017-01-16T21:24:42.995Z,-1.14
2017-01-16T21:25:42.922Z,-1.14
2017-01-16T21:26:42.896Z,-1.15
2017-01-16T21:27:42.474Z,-1.14
2017-01-16T21:28:42.836Z,-1.23
2017-01-16T21:29:42.811Z,-1.17
2017-01-16T21:30:41.979Z,-1.23
2017-01-16T21:31:42.779Z,-1.18
2017-01-16T21:32:42.723Z,-1.23
2017-01-16T21:33:42.703Z,-1.2
2017-01-16T21:34:42.294Z,-1.2
2017-01-16T21:35:42.651Z,-1.28
2017-01-16T21:36:42.220Z,-1.26
2017-01-16T21:37:42.681Z,-1.31
2017-01-16T21:38:42.572Z,-1.2
2017-01-16T21:39:42.555Z,-1.28
2017-01-16T21:40:42.558Z,-1.25
2017-01-16T21:41:42.485Z,-1.21
2017-01-16T21:42:42.058Z,-1.13
2017-01-16T21:43:42.529Z,-1.15
2017-01-16T21:44:42.396Z,-1.21
2017-01-16T21:45:41.966Z,-1.28
2017-01-16T21:46:41.967Z,-1.23
2017-01-16T21:47:42.324Z,-1.26
2017-01-16T21:48:42.295Z,-1.31
2017-01-16T21:49:42.254Z,-1.28
2017-01-16T21:50:42.233Z,-1.33
2017-01-16T21:51:42.206Z,-1.31
2017-01-16T21:52:42.247Z,-1.23
2017-01-16T21:53:42.160Z,-1.2
2017-01-16T21:54:41.716Z,-1.28
2017-01-16T21:55:41.710Z,-1.29
2017-01-16T21:56:41.264Z,-1.18
2017-01-16T21:57:42.044Z,-1.32
2017-01-16T21:58:41.610Z,-1.18
2017-01-16T21:59:41.982Z,-1.21
2017-01-16T22:00:41.562Z,-1.25
2017-01-16T22:01:41.933Z,-1.21
2017-01-16T22:02:41.912Z,-1.18
2017-01-16T22:03:41.888Z,-1.14
2017-01-16T22:04:41.858Z,-1.2
2017-01-16T22:05:41.031Z,-1.14
2017-01-16T22:06:41.796Z,-1.1
2017-01-16T22:07:41.812Z,-1.15
2017-01-16T22:08:41.393Z,-1.2
2017-01-16T22:09:41.728Z,-1.11
2017-01-16T22:10:41.687Z,-1.13
2017-01-16T22:11:41.568Z,-1.15
2017-01-16T22:12:41.629Z,-1.13
2017-01-16T22:13:41.216Z,-1.14
2017-01-16T22:14:41.622Z,-1.14
2017-01-16T22:15:41.545Z,-1.13
2017-01-16T22:16:41.519Z,-1.11
2017-01-16T22:17:41.541Z,-1.13
2017-01-16T22:18:41.467Z,-1.11
2017-01-16T22:19:41.449Z,-1.2
2017-01-16T22:20:41.426Z,-1.17
2017-01-16T22:21:41.387Z,-1.17
2017-01-16T22:22:41.350Z,-1.26
2017-01-16T22:23:41.325Z,-1.33
2017-01-16T22:24:41.299Z,-1.21
2017-01-16T22:25:40.874Z,-1.18
2017-01-16T22:26:40.840Z,-1.21
2017-01-16T22:27:41.226Z,-1.2
2017-01-16T22:28:41.193Z,-1.23
2017-01-16T22:29:40.766Z,-1.21
2017-01-16T22:30:41.151Z,-1.23
2017-01-16T22:31:41.160Z,-1.26
2017-01-16T22:32:41.090Z,-1.26
2017-01-16T22:33:41.053Z,-1.31
2017-01-16T22:34:41.074Z,-1.31
2017-01-16T22:35:40.664Z,-1.18
2017-01-16T22:36:40.566Z,-1.25
2017-01-16T22:37:40.937Z,-1.23
2017-01-16T22:38:40.995Z,-1.23
2017-01-16T22:39:40.599Z,-1.2
2017-01-16T22:40:40.965Z,-1.21
2017-01-16T22:41:40.852Z,-1.21
2017-01-16T22:42:40.851Z,-1.25
2017-01-16T22:43:40.866Z,-1.1
2017-01-16T22:44:40.823Z,-1.1
2017-01-16T22:45:40.807Z,-1.11
2017-01-16T22:46:40.294Z,-1.18
2017-01-16T22:47:40.690Z,-1.18
2017-01-16T22:48:40.649Z,-1.21
2017-01-16T22:49:40.609Z,-1.25
2017-01-16T22:50:40.595Z,-1.18
2017-01-16T22:51:40.151Z,-1.23
2017-01-16T22:52:40.133Z,-1.32
2017-01-16T22:53:40.519Z,-1.35
2017-01-16T22:54:40.077Z,-1.28
2017-01-16T22:55:40.535Z,-1.2
2017-01-16T22:56:40.455Z,-1.25
2017-01-16T22:57:39.598Z,-1.21
2017-01-16T22:58:40.371Z,-1.1
2017-01-16T22:59:40.331Z,-1.1
2017-01-16T23:00:40.355Z,-1.13
2017-01-16T23:01:40.277Z,-1.14
2017-01-16T23:02:39.917Z,-1.26
2017-01-16T23:03:40.253Z,-1.17
2017-01-16T23:04:40.198Z,-1.23
2017-01-16T23:05:40.180Z,-1.23
2017-01-16T23:06:39.750Z,-1.17
2017-01-16T23:07:40.115Z,-1.21
2017-01-16T23:08:40.099Z,-1.26
2017-01-16T23:09:40.092Z,-1.23
2017-01-16T23:10:39.625Z,-1.25
2017-01-16T23:11:40.000Z,-1.28
2017-01-16T23:12:39.978Z,-1.25
2017-01-16T23:13:39.554Z,-1.39
2017-01-16T23:14:39.127Z,-1.28
2017-01-16T23:15:39.893Z,-1.23
2017-01-16T23:16:39.868Z,-1.26
2017-01-16T23:17:39.837Z,-1.28
2017-01-16T23:18:39.807Z,-1.38
2017-01-16T23:19:39.380Z,-1.35
2017-01-16T23:20:39.771Z,-1.36
2017-01-16T23:21:39.332Z,-1.35
2017-01-16T23:22:39.741Z,-1.29
2017-01-16T23:23:39.277Z,-1.26
2017-01-16T23:24:39.252Z,-1.25
2017-01-16T23:25:39.610Z,-1.21
2017-01-16T23:26:39.597Z,-1.11
2017-01-16T23:27:39.214Z,-1.11
2017-01-16T23:28:39.535Z,-1.11
2017-01-16T23:29:39.132Z,-1.13
2017-01-16T23:30:39.475Z,-1.11
2017-01-16T23:31:39.459Z,-1.15
2017-01-16T23:32:39.416Z,-1.11
2017-01-16T23:33:39.387Z,-1.15
2017-01-16T23:34:39.369Z,-1.23
2017-01-16T23:35:39.340Z,-1.18
2017-01-16T23:36:39.856Z,-1.29
2017-01-16T23:37:39.279Z,-1.29
2017-01-16T23:38:39.253Z,-1.26
2017-01-16T23:39:39.269Z,-1.26
2017-01-16T23:40:39.214Z,-1.39
2017-01-16T23:41:38.769Z,-1.33
2017-01-16T23:42:39.220Z,-1.39
2017-01-16T23:43:39.110Z,-1.43
2017-01-16T23:44:38.682Z,-1.35
2017-01-16T23:45:39.358Z,-1.33
2017-01-16T23:46:39.029Z,-1.31
2017-01-16T23:47:38.607Z,-1.47
2017-01-16T23:48:38.976Z,-1.43
2017-01-16T23:49:38.963Z,-1.41
2017-01-16T23:50:38.516Z,-1.43
2017-01-16T23:51:38.486Z,-1.38
2017-01-16T23:52:38.860Z,-1.43
2017-01-16T23:53:38.844Z,-1.43
2017-01-16T23:54:38.800Z,-1.44
2017-01-16T23:55:38.819Z,-1.39
2017-01-16T23:56:38.340Z,-1.46
2017-01-16T23:57:38.714Z,-1.44
2017-01-16T23:58:38.690Z,-1.41
2017-01-16T23:59:38.665Z,-1.38
